Time,TemperatureF,DewpointF,PressureIn,WindDirection,WindDirectionDegrees,WindSpeedMPH,WindSpeedGustMPH,Humidity,HourlyPrecipIn,Conditions,Clouds,dailyrainin,SoftwareType,DateUTC
2013-05-28 00:02:00,45.0,36.0,29.86,West,267,10.0,18.0,70,0.00,,,0.00,,2013-05-28 06:02:00,
2013-05-28 00:11:00,45.0,36.0,29.86,West,267,10.0,18.0,70,0.00,,,0.00,,2013-05-28 06:11:00,
2013-05-28 00:21:00,45.0,37.0,29.85,WSW,257,11.0,16.0,73,0.00,,,0.00,,2013-05-28 06:21:00,
2013-05-28 00:31:00,45.0,38.0,29.85,West,263,8.0,15.0,76,0.00,,,0.00,,2013-05-28 06:31:00,
2013-05-28 00:41:00,45.0,38.0,29.85,West,263,8.0,15.0,76,0.00,,,0.00,,2013-05-28 06:41:00,
2013-05-28 00:52:00,44.0,38.0,29.84,WSW,246,10.0,15.0,78,0.00,,,0.00,,2013-05-28 06:52:00,
2013-05-28 01:01:00,44.0,38.0,29.84,West,261,7.0,12.0,79,0.00,,,0.00,,2013-05-28 07:01:00,
2013-05-28 01:11:00,44.0,38.0,29.84,West,261,7.0,12.0,79,0.00,,,0.00,,2013-05-28 07:11:00,
2013-05-28 01:21:00,44.0,39.0,29.84,West,269,6.0,10.0,81,0.00,,,0.00,,2013-05-28 07:21:00,
2013-05-28 01:31:00,43.0,38.0,29.84,WNW,282,5.0,10.0,84,0.00,,,0.00,,2013-05-28 07:31:00,
2013-05-28 01:41:00,43.0,38.0,29.84,WNW,282,5.0,10.0,84,0.00,,,0.00,,2013-05-28 07:41:00,
2013-05-28 01:52:00,43.0,39.0,29.83,WNW,286,5.0,8.0,87,0.00,,,0.00,,2013-05-28 07:52:00,
2013-05-28 02:01:00,43.0,40.0,29.83,WNW,292,6.0,10.0,90,0.00,,,0.00,,2013-05-28 08:01:00,
2013-05-28 02:11:00,43.0,40.0,29.83,WNW,292,6.0,10.0,90,0.00,,,0.00,,2013-05-28 08:11:00,
2013-05-28 02:21:00,43.0,40.0,29.82,West,260,8.0,12.0,89,0.00,,,0.00,,2013-05-28 08:21:00,
2013-05-28 02:32:00,42.0,39.0,29.81,West,268,4.0,7.0,90,0.00,,,0.00,,2013-05-28 08:32:00,
2013-05-28 02:41:00,42.0,39.0,29.81,West,268,4.0,7.0,90,0.00,,,0.00,,2013-05-28 08:41:00,
2013-05-28 02:52:00,42.0,40.0,29.81,West,265,4.0,7.0,91,0.00,,,0.00,,2013-05-28 08:52:00,
2013-05-28 03:01:00,42.0,40.0,29.80,West,265,3.0,5.0,91,0.00,,,0.00,,2013-05-28 09:01:00,
2013-05-28 03:11:00,42.0,40.0,29.80,West,265,3.0,5.0,91,0.00,,,0.00,,2013-05-28 09:11:00,
2013-05-28 03:21:00,41.0,39.0,29.80,West,267,4.0,7.0,91,0.00,,,0.00,,2013-05-28 09:21:00,
2013-05-28 03:33:00,41.0,38.0,29.79,WSW,256,3.0,8.0,90,0.00,,,0.00,,2013-05-28 09:33:00,
2013-05-28 03:42:00,41.0,38.0,29.79,WSW,256,3.0,8.0,90,0.00,,,0.00,,2013-05-28 09:42:00,
2013-05-28 03:53:00,42.0,39.0,29.79,WSW,256,2.0,3.0,90,0.00,,,0.00,,2013-05-28 09:53:00,
2013-05-28 04:02:00,42.0,39.0,29.78,WSW,256,0.0,0.0,89,0.00,,,0.00,,2013-05-28 10:02:00,
2013-05-28 04:12:00,42.0,39.0,29.78,WSW,256,0.0,0.0,89,0.00,,,0.00,,2013-05-28 10:12:00,
2013-05-28 04:22:00,41.0,38.0,29.78,WSW,256,0.0,1.0,89,0.00,,,0.00,,2013-05-28 10:22:00,
2013-05-28 04:32:00,42.0,38.0,29.78,WSW,256,0.0,3.0,87,0.00,,,0.00,,2013-05-28 10:32:00,
2013-05-28 04:42:00,42.0,38.0,29.78,WSW,256,0.0,3.0,87,0.00,,,0.00,,2013-05-28 10:42:00,
2013-05-28 04:53:00,42.0,38.0,29.77,WSW,256,1.0,3.0,84,0.00,,,0.00,,2013-05-28 10:53:00,
2013-05-28 05:02:00,42.0,38.0,29.77,WSW,256,0.0,2.0,84,0.00,,,0.00,,2013-05-28 11:02:00,
2013-05-28 05:11:00,42.0,38.0,29.77,WSW,256,0.0,2.0,84,0.00,,,0.00,,2013-05-28 11:11:00,
2013-05-28 05:22:00,41.0,38.0,29.76,WNW,297,4.0,6.0,89,0.00,,,0.00,,2013-05-28 11:22:00,
2013-05-28 05:31:00,41.0,38.0,29.76,WNW,298,0.0,3.0,89,0.00,,,0.00,,2013-05-28 11:31:00,
2013-05-28 05:41:00,41.0,38.0,29.76,WNW,298,0.0,3.0,89,0.00,,,0.00,,2013-05-28 11:41:00,
2013-05-28 05:52:00,40.0,37.0,29.75,WNW,300,2.0,4.0,90,0.00,,,0.00,,2013-05-28 11:52:00,
2013-05-28 06:01:00,41.0,38.0,29.75,WNW,300,0.0,3.0,89,0.00,,,0.00,,2013-05-28 12:01:00,
2013-05-28 06:11:00,41.0,38.0,29.75,WNW,300,0.0,3.0,89,0.00,,,0.00,,2013-05-28 12:11:00,
2013-05-28 06:21:00,42.0,38.0,29.75,WNW,300,0.0,2.0,86,0.00,,,0.00,,2013-05-28 12:21:00,
2013-05-28 06:31:00,43.0,38.0,29.75,WNW,300,0.0,3.0,82,0.00,,,0.00,,2013-05-28 12:31:00,
2013-05-28 06:42:00,43.0,38.0,29.75,WNW,300,0.0,3.0,82,0.00,,,0.00,,2013-05-28 12:42:00,
2013-05-28 06:52:00,43.0,38.0,29.74,WNW,300,1.0,2.0,82,0.00,,,0.00,,2013-05-28 12:52:00,
2013-05-28 07:01:00,43.0,37.0,29.74,WNW,300,2.0,3.0,80,0.00,,,0.00,,2013-05-28 13:01:00,
2013-05-28 07:11:00,43.0,37.0,29.74,WNW,300,2.0,3.0,80,0.00,,,0.00,,2013-05-28 13:11:00,
2013-05-28 07:21:00,44.0,38.0,29.73,WNW,300,1.0,3.0,78,0.00,,,0.00,,2013-05-28 13:21:00,
2013-05-28 07:32:00,45.0,38.0,29.72,WNW,300,2.0,2.0,76,0.00,,,0.00,,2013-05-28 13:32:00,
2013-05-28 07:42:00,45.0,38.0,29.72,WNW,300,2.0,2.0,76,0.00,,,0.00,,2013-05-28 13:42:00,
2013-05-28 07:52:00,44.0,38.0,29.72,WNW,300,0.0,0.0,79,0.00,,,0.00,,2013-05-28 13:52:00,
2013-05-28 08:01:00,45.0,39.0,29.72,WNW,300,0.0,1.0,79,0.00,,,0.00,,2013-05-28 14:01:00,
2013-05-28 08:11:00,45.0,39.0,29.72,WNW,300,0.0,1.0,79,0.00,,,0.00,,2013-05-28 14:11:00,
2013-05-28 08:32:00,48.0,37.0,29.72,NW,307,0.0,5.0,65,0.00,,,0.00,,2013-05-28 14:32:00,
2013-05-28 08:41:00,48.0,37.0,29.72,NW,307,0.0,5.0,65,0.00,,,0.00,,2013-05-28 14:41:00,
2013-05-28 08:52:00,49.0,39.0,29.72,WNW,286,2.0,7.0,67,0.00,,,0.00,,2013-05-28 14:52:00,
2013-05-28 09:01:00,49.0,39.0,29.72,WNW,286,2.0,7.0,67,0.00,,,0.00,,2013-05-28 15:01:00,
2013-05-28 09:21:00,46.0,38.0,29.72,West,281,8.0,11.0,74,0.00,,,0.00,,2013-05-28 15:21:00,
2013-05-28 09:32:00,46.0,39.0,29.73,West,265,8.0,11.0,75,0.00,,,0.00,,2013-05-28 15:32:00,
2013-05-28 09:43:00,46.0,39.0,29.73,West,265,8.0,11.0,75,0.00,,,0.00,,2013-05-28 15:43:00,
2013-05-28 09:53:00,46.0,41.0,29.73,WNW,284,8.0,12.0,82,0.00,,,0.00,,2013-05-28 15:53:00,
2013-05-28 10:02:00,43.0,41.0,29.73,West,267,9.0,13.0,92,0.00,,,0.00,,2013-05-28 16:02:00,
2013-05-28 10:12:00,43.0,41.0,29.73,West,267,9.0,13.0,92,0.00,,,0.00,,2013-05-28 16:12:00,
2013-05-28 10:22:00,43.0,42.0,29.74,West,275,7.0,11.0,95,0.00,,,0.00,,2013-05-28 16:22:00,
2013-05-28 10:32:00,42.0,41.0,29.74,West,261,7.0,13.0,95,0.00,,,0.00,,2013-05-28 16:32:00,
2013-05-28 10:42:00,42.0,41.0,29.74,West,261,7.0,13.0,95,0.00,,,0.00,,2013-05-28 16:42:00,
2013-05-28 10:52:00,43.0,42.0,29.74,West,267,7.0,11.0,96,0.00,,,0.00,,2013-05-28 16:52:00,
2013-05-28 11:02:00,43.0,42.0,29.73,West,259,8.0,13.0,96,0.00,,,0.00,,2013-05-28 17:02:00,
2013-05-28 11:11:00,43.0,42.0,29.73,West,259,8.0,13.0,96,0.00,,,0.00,,2013-05-28 17:11:00,
2013-05-28 11:22:00,43.0,42.0,29.73,West,259,8.0,13.0,96,0.00,,,0.00,,2013-05-28 17:22:00,
2013-05-28 11:31:00,41.0,40.0,29.73,WSW,250,8.0,12.0,96,0.01,,,0.01,,2013-05-28 17:31:00,
2013-05-28 11:41:00,41.0,40.0,29.74,West,265,9.0,15.0,97,0.02,,,0.02,,2013-05-28 17:41:00,
2013-05-28 11:52:00,41.0,40.0,29.74,West,265,9.0,15.0,97,0.02,,,0.02,,2013-05-28 17:52:00,
2013-05-28 12:01:00,41.0,40.0,29.74,WSW,255,10.0,13.0,97,0.02,,,0.02,,2013-05-28 18:01:00,
2013-05-28 12:11:00,41.0,40.0,29.74,WSW,255,10.0,13.0,97,0.02,,,0.02,,2013-05-28 18:11:00,
2013-05-28 12:21:00,41.0,40.0,29.75,West,275,9.0,13.0,97,0.02,,,0.02,,2013-05-28 18:21:00,
2013-05-28 12:32:00,41.0,40.0,29.75,West,275,10.0,17.0,97,0.01,,,0.02,,2013-05-28 18:32:00,
2013-05-28 12:42:00,41.0,40.0,29.75,West,271,8.0,14.0,97,0.01,,,0.03,,2013-05-28 18:42:00,
2013-05-28 12:52:00,41.0,40.0,29.75,West,271,8.0,14.0,97,0.01,,,0.03,,2013-05-28 18:52:00,
2013-05-28 13:01:00,41.0,40.0,29.75,WSW,250,10.0,16.0,97,0.01,,,0.03,,2013-05-28 19:01:00,
2013-05-28 13:11:00,41.0,40.0,29.75,WSW,250,10.0,16.0,97,0.01,,,0.03,,2013-05-28 19:11:00,
2013-05-28 13:21:00,41.0,40.0,29.75,West,261,10.0,16.0,97,0.02,,,0.04,,2013-05-28 19:21:00,
2013-05-28 13:31:00,41.0,40.0,29.75,West,265,9.0,14.0,98,0.03,,,0.05,,2013-05-28 19:31:00,
2013-05-28 13:41:00,41.0,40.0,29.75,West,265,9.0,14.0,98,0.03,,,0.05,,2013-05-28 19:41:00,
2013-05-28 13:52:00,42.0,41.0,29.75,WSW,248,7.0,14.0,98,0.03,,,0.06,,2013-05-28 19:52:00,
2013-05-28 14:01:00,42.0,41.0,29.75,West,271,6.0,10.0,98,0.04,,,0.07,,2013-05-28 20:01:00,
2013-05-28 14:11:00,42.0,41.0,29.75,West,271,6.0,10.0,98,0.04,,,0.07,,2013-05-28 20:11:00,
2013-05-28 14:22:00,42.0,41.0,29.75,West,273,6.0,9.0,98,0.03,,,0.07,,2013-05-28 20:22:00,
2013-05-28 14:32:00,43.0,42.0,29.75,WSW,252,6.0,12.0,97,0.02,,,0.07,,2013-05-28 20:32:00,
2013-05-28 14:42:00,43.0,42.0,29.75,WSW,252,6.0,12.0,97,0.02,,,0.07,,2013-05-28 20:42:00,
2013-05-28 14:52:00,44.0,43.0,29.75,West,270,5.0,11.0,95,0.01,,,0.07,,2013-05-28 20:52:00,
2013-05-28 15:01:00,44.0,42.0,29.75,West,259,5.0,9.0,93,0.00,,,0.07,,2013-05-28 21:01:00,
2013-05-28 15:11:00,44.0,42.0,29.75,WSW,254,5.0,8.0,92,0.00,,,0.07,,2013-05-28 21:11:00,
2013-05-28 15:21:00,44.0,42.0,29.75,WSW,254,5.0,8.0,92,0.00,,,0.07,,2013-05-28 21:21:00,
2013-05-28 15:33:00,44.0,42.0,29.75,WSW,243,4.0,8.0,92,0.00,,,0.07,,2013-05-28 21:33:00,
2013-05-28 15:43:00,45.0,42.0,29.75,WSW,246,5.0,8.0,90,0.00,,,0.07,,2013-05-28 21:43:00,
2013-05-28 15:53:00,45.0,42.0,29.75,WSW,246,5.0,8.0,90,0.00,,,0.07,,2013-05-28 21:53:00,
2013-05-28 16:02:00,45.0,41.0,29.75,SW,232,5.0,8.0,87,0.00,,,0.07,,2013-05-28 22:02:00,
2013-05-28 16:12:00,44.0,41.0,29.75,WSW,241,7.0,9.0,88,0.00,,,0.07,,2013-05-28 22:12:00,
2013-05-28 16:22:00,44.0,41.0,29.75,WSW,241,7.0,9.0,88,0.00,,,0.07,,2013-05-28 22:22:00,
2013-05-28 16:32:00,44.0,41.0,29.75,SW,232,8.0,14.0,89,0.00,,,0.07,,2013-05-28 22:32:00,
2013-05-28 16:42:00,43.0,41.0,29.75,WSW,241,5.0,12.0,93,0.01,,,0.08,,2013-05-28 22:42:00,
2013-05-28 16:52:00,43.0,41.0,29.75,WSW,241,5.0,12.0,93,0.01,,,0.08,,2013-05-28 22:52:00,
2013-05-28 17:02:00,43.0,41.0,29.75,WSW,248,7.0,11.0,94,0.01,,,0.08,,2013-05-28 23:02:00,
2013-05-28 17:11:00,44.0,43.0,29.76,WSW,246,10.0,15.0,96,0.01,,,0.08,,2013-05-28 23:11:00,
2013-05-28 17:21:00,44.0,43.0,29.76,WSW,246,10.0,15.0,96,0.01,,,0.08,,2013-05-28 23:21:00,
2013-05-28 17:32:00,43.0,42.0,29.76,SW,229,13.0,19.0,95,0.01,,,0.08,,2013-05-28 23:32:00,
2013-05-28 17:41:00,43.0,42.0,29.76,SW,229,13.0,19.0,95,0.01,,,0.08,,2013-05-28 23:41:00,
2013-05-28 17:52:00,43.0,42.0,29.76,SW,229,9.0,13.0,95,0.02,,,0.10,,2013-05-28 23:52:00,
2013-05-28 18:01:00,43.0,42.0,29.76,SW,234,15.0,24.0,96,0.06,,,0.14,,2013-05-29 00:01:00,
2013-05-28 18:11:00,43.0,42.0,29.76,SW,234,15.0,24.0,96,0.06,,,0.14,,2013-05-29 00:11:00,
2013-05-28 18:21:00,44.0,43.0,29.77,WSW,248,9.0,18.0,96,0.06,,,0.14,,2013-05-29 00:21:00,
2013-05-28 18:32:00,44.0,43.0,29.77,SW,227,10.0,18.0,96,0.06,,,0.14,,2013-05-29 00:32:00,
2013-05-28 18:41:00,44.0,43.0,29.77,SW,227,10.0,18.0,96,0.06,,,0.14,,2013-05-29 00:41:00,
2013-05-28 18:52:00,44.0,43.0,29.76,SW,224,11.0,20.0,96,0.06,,,0.16,,2013-05-29 00:52:00,
2013-05-28 19:01:00,44.0,43.0,29.77,WSW,255,8.0,16.0,96,0.02,,,0.16,,2013-05-29 01:01:00,
2013-05-28 19:11:00,44.0,43.0,29.77,WSW,255,8.0,16.0,96,0.02,,,0.16,,2013-05-29 01:11:00,
2013-05-28 19:21:00,44.0,43.0,29.76,WSW,254,13.0,18.0,96,0.04,,,0.18,,2013-05-29 01:21:00,
2013-05-28 19:31:00,44.0,43.0,29.76,WSW,248,6.0,10.0,97,0.06,,,0.20,,2013-05-29 01:31:00,
2013-05-28 19:41:00,44.0,43.0,29.76,WSW,248,6.0,10.0,97,0.06,,,0.20,,2013-05-29 01:41:00,
2013-05-28 19:52:00,44.0,43.0,29.75,WSW,243,7.0,10.0,97,0.05,,,0.21,,2013-05-29 01:52:00,
2013-05-28 20:02:00,44.0,43.0,29.76,SW,227,7.0,13.0,96,0.05,,,0.21,,2013-05-29 02:02:00,
2013-05-28 20:11:00,45.0,43.0,29.76,SW,225,9.0,15.0,94,0.03,,,0.21,,2013-05-29 02:11:00,
2013-05-28 20:21:00,45.0,43.0,29.76,SW,225,9.0,15.0,94,0.03,,,0.21,,2013-05-29 02:21:00,
2013-05-28 20:31:00,45.0,43.0,29.77,SW,227,8.0,13.0,91,0.01,,,0.21,,2013-05-29 02:31:00,
2013-05-28 20:41:00,45.0,41.0,29.77,SW,236,11.0,15.0,87,0.00,,,0.21,,2013-05-29 02:41:00,
2013-05-28 20:52:00,45.0,41.0,29.77,SW,236,11.0,15.0,87,0.00,,,0.21,,2013-05-29 02:52:00,
2013-05-28 21:01:00,45.0,41.0,29.77,SW,228,8.0,11.0,87,0.00,,,0.21,,2013-05-29 03:01:00,
2013-05-28 21:11:00,45.0,41.0,29.77,SW,228,8.0,11.0,87,0.00,,,0.21,,2013-05-29 03:11:00,
2013-05-28 21:21:00,45.0,41.0,29.77,SW,226,8.0,15.0,86,0.00,,,0.21,,2013-05-29 03:21:00,
2013-05-28 21:32:00,44.0,40.0,29.77,WSW,252,7.0,10.0,87,0.00,,,0.21,,2013-05-29 03:32:00,
2013-05-28 21:43:00,44.0,40.0,29.77,WSW,252,7.0,10.0,87,0.00,,,0.21,,2013-05-29 03:43:00,
2013-05-28 21:53:00,44.0,40.0,29.78,WSW,251,7.0,11.0,87,0.00,,,0.21,,2013-05-29 03:53:00,
2013-05-28 22:02:00,44.0,41.0,29.78,WSW,255,3.0,12.0,89,0.02,,,0.23,,2013-05-29 04:02:00,
2013-05-28 22:12:00,44.0,41.0,29.78,WSW,246,6.0,10.0,90,0.04,,,0.25,,2013-05-29 04:12:00,
2013-05-28 22:23:00,44.0,41.0,29.78,WSW,246,6.0,10.0,90,0.04,,,0.25,,2013-05-29 04:23:00,
2013-05-28 22:33:00,43.0,41.0,29.78,WSW,238,7.0,11.0,91,0.06,,,0.27,,2013-05-29 04:33:00,
2013-05-28 22:42:00,43.0,41.0,29.78,WSW,238,7.0,11.0,91,0.06,,,0.27,,2013-05-29 04:42:00,
2013-05-28 22:52:00,44.0,40.0,29.78,SW,234,12.0,21.0,85,0.06,,,0.27,,2013-05-29 04:52:00,
2013-05-28 23:02:00,44.0,40.0,29.78,WSW,240,8.0,15.0,85,0.04,,,0.27,,2013-05-29 05:02:00,
2013-05-28 23:12:00,44.0,40.0,29.78,WSW,240,8.0,15.0,85,0.04,,,0.27,,2013-05-29 05:12:00,
2013-05-28 23:22:00,43.0,39.0,29.78,WSW,254,8.0,12.0,85,0.01,,,0.27,,2013-05-29 05:22:00,
2013-05-28 23:32:00,43.0,39.0,29.78,SW,224,7.0,12.0,85,0.00,,,0.27,,2013-05-29 05:32:00,
2013-05-28 23:42:00,43.0,39.0,29.78,SW,224,7.0,12.0,85,0.00,,,0.27,,2013-05-29 05:42:00,
2013-05-28 23:52:00,43.0,38.0,29.78,SW,228,9.0,15.0,84,0.00,,,0.27,,2013-05-29 05:52:00,